Time;durP1;ratioP1;P1;durP2;ratioP2;P2;SDS_P1;SDS_P2;PMS_P1;PMS_P2;Temp;Humidity;BMP_temperature;BMP_pressure;BME280_temperature;BME280_humidity;BME280_pressure;Samples;Min_cycle;Max_cycle;Signal;HPM_P1;HPM_P2
2021/11/01 00:01:36;;;;;;;33.03;29.52;;;10.20;99.90;;;;;;5047519;28;20513;-83
2021/11/01 00:04:04;;;;;;;32.47;29.17;;;10.10;99.90;;;;;;5049304;28;20383;-83
2021/11/01 00:06:30;;;;;;;33.03;28.63;;;10.00;99.90;;;;;;5061999;28;20398;-83
2021/11/01 00:08:57;;;;;;;32.75;29.45;;;10.10;99.90;;;;;;5066123;28;20392;-83
2021/11/01 00:11:23;;;;;;;31.85;28.65;;;10.10;99.90;;;;;;5059985;28;20410;-83
2021/11/01 00:13:49;;;;;;;34.17;30.77;;;10.00;99.90;;;;;;5066089;28;20389;-82
2021/11/01 00:16:15;;;;;;;32.95;29.70;;;10.00;99.90;;;;;;5048514;28;20387;-83
2021/11/01 00:18:41;;;;;;;32.42;29.17;;;9.90;99.90;;;;;;5048929;28;20394;-83
2021/11/01 00:21:07;;;;;;;33.30;29.92;;;10.00;99.90;;;;;;5047853;28;20442;-82
2021/11/01 00:23:32;;;;;;;32.97;29.63;;;9.90;99.90;;;;;;5049345;28;20415;-80
2021/11/01 00:25:58;;;;;;;34.33;30.52;;;9.90;99.90;;;;;;5049430;28;20387;-80
2021/11/01 00:28:24;;;;;;;33.63;30.23;;;9.90;99.90;;;;;;5065426;28;20814;-81
2021/11/01 00:30:50;;;;;;;33.30;29.90;;;9.90;99.90;;;;;;5050988;28;20467;-81
2021/11/01 00:33:16;;;;;;;34.17;30.70;;;9.80;99.90;;;;;;5049067;28;20438;-83
2021/11/01 00:35:41;;;;;;;34.27;30.77;;;9.80;99.90;;;;;;5054556;28;20929;-81
2021/11/01 00:38:07;;;;;;;34.17;30.70;;;9.80;99.90;;;;;;5048308;28;20461;-81
2021/11/01 00:40:33;;;;;;;35.63;31.80;;;9.80;99.90;;;;;;5067316;28;20374;-81
2021/11/01 00:43:03;;;;;;;34.70;31.25;;;9.80;99.90;;;;;;5067199;28;20936;-81
2021/11/01 00:45:29;;;;;;;34.28;30.70;;;9.70;99.90;;;;;;5049426;28;20818;-81
2021/11/01 00:47:54;;;;;;;34.33;30.83;;;9.80;99.90;;;;;;5055504;27;20464;-82
2021/11/01 00:50:20;;;;;;;34.97;31.27;;;9.80;99.90;;;;;;5049357;28;20399;-82
2021/11/01 00:52:46;;;;;;;34.10;30.58;;;9.80;99.90;;;;;;5047467;28;20422;-81
2021/11/01 00:55:20;;;;;;;34.83;31.33;;;9.80;99.90;;;;;;5059349;28;20398;-81
2021/11/01 00:57:46;;;;;;;34.60;31.00;;;9.80;99.90;;;;;;5068615;28;20435;-81
2021/11/01 01:00:12;;;;;;;36.00;32.13;;;9.80;99.90;;;;;;5049979;28;20392;-81
2021/11/01 01:02:38;;;;;;;32.50;29.33;;;9.80;99.90;;;;;;5059500;27;20916;-81
2021/11/01 01:05:05;;;;;;;34.30;30.70;;;9.70;99.90;;;;;;5060907;28;20393;-80
2021/11/01 01:07:31;;;;;;;35.75;31.92;;;9.70;99.90;;;;;;5067725;28;20389;-82
2021/11/01 01:09:57;;;;;;;35.95;32.15;;;9.70;99.90;;;;;;5066016;28;20390;-81
2021/11/01 01:12:24;;;;;;;36.73;32.93;;;9.70;99.90;;;;;;5066153;28;20417;-81
2021/11/01 01:15:03;;;;;;;35.75;32.22;;;9.70;99.90;;;;;;5051577;28;20384;-81
2021/11/01 01:17:30;;;;;;;36.80;33.10;;;9.60;99.90;;;;;;5048881;28;20809;-81
2021/11/01 01:20:05;;;;;;;36.25;32.53;;;9.60;99.90;;;;;;5054506;28;20861;-81
2021/11/01 01:22:31;;;;;;;36.65;32.90;;;9.70;99.90;;;;;;5049066;28;20391;-81
2021/11/01 01:25:02;;;;;;;35.57;32.17;;;9.70;99.90;;;;;;5061741;28;20381;-82
2021/11/01 01:27:28;;;;;;;36.58;32.72;;;9.60;99.90;;;;;;5064172;28;20413;-81
2021/11/01 01:29:53;;;;;;;37.00;33.20;;;9.70;99.90;;;;;;5066768;28;20483;-81
2021/11/01 01:32:19;;;;;;;36.77;32.97;;;9.60;99.90;;;;;;5066876;28;20410;-81
2021/11/01 01:34:44;;;;;;;36.23;32.60;;;9.60;99.90;;;;;;5049712;28;20390;-81
2021/11/01 01:37:10;;;;;;;37.50;33.50;;;9.60;99.90;;;;;;5047126;28;20478;-81
2021/11/01 01:39:36;;;;;;;36.70;33.00;;;9.60;99.90;;;;;;5049910;28;20386;-81
2021/11/01 01:42:02;;;;;;;37.90;34.17;;;9.60;99.90;;;;;;5047924;28;20414;-81
2021/11/01 01:44:28;;;;;;;35.50;31.95;;;9.60;99.90;;;;;;5047976;28;20402;-80
2021/11/01 01:46:54;;;;;;;37.47;33.47;;;9.60;99.90;;;;;;5064373;28;20479;-81
2021/11/01 01:49:19;;;;;;;35.95;32.25;;;9.50;99.90;;;;;;5053531;28;20384;-81
2021/11/01 01:51:46;;;;;;;37.78;34.03;;;9.60;99.90;;;;;;5050243;28;20419;-81
2021/11/01 01:54:11;;;;;;;36.20;32.58;;;9.50;99.90;;;;;;5063360;28;20387;-81
2021/11/01 01:56:37;;;;;;;37.53;33.80;;;9.50;99.90;;;;;;5070939;28;20424;-81
2021/11/01 01:59:05;;;;;;;38.28;34.47;;;9.50;99.90;;;;;;5054255;28;20453;-81
2021/11/01 02:01:31;;;;;;;38.03;34.17;;;9.50;99.90;;;;;;5050196;28;20495;-81
2021/11/01 02:03:59;;;;;;;38.33;34.40;;;9.50;99.90;;;;;;5053566;28;20380;-81
2021/11/01 02:06:48;;;;;;;36.40;32.78;;;9.50;99.90;;;;;;5046780;28;20454;-83
2021/11/01 02:09:27;;;;;;;37.20;33.38;;;9.50;99.90;;;;;;5058142;28;20478;-81
2021/11/01 02:12:25;;;;;;;37.55;33.75;;;9.50;99.90;;;;;;5070108;28;20404;-82
2021/11/01 02:14:58;;;;;;;37.72;33.85;;;9.50;99.90;;;;;;5061323;28;20398;-81
2021/11/01 02:17:29;;;;;;;37.22;33.60;;;9.50;99.90;;;;;;5069669;28;20480;-81
2021/11/01 02:20:06;;;;;;;37.92;34.03;;;9.40;99.90;;;;;;5057850;28;21528;-80
2021/11/01 02:22:47;;;;;;;38.40;34.42;;;9.50;99.90;;;;;;5066817;28;20459;-80
2021/11/01 02:25:31;;;;;;;39.95;35.70;;;9.40;99.90;;;;;;5059907;28;20426;-81
2021/11/01 02:27:57;;;;;;;37.57;33.77;;;9.50;99.90;;;;;;5063041;28;20395;-81
2021/11/01 02:30:23;;;;;;;38.88;34.85;;;9.40;99.90;;;;;;5051020;28;20376;-81
2021/11/01 02:32:50;;;;;;;39.50;35.47;;;9.50;99.90;;;;;;5050244;28;20414;-81
2021/11/01 02:35:16;;;;;;;38.70;34.70;;;9.40;99.90;;;;;;5051376;28;20392;-81
2021/11/01 02:37:42;;;;;;;39.17;35.30;;;9.40;99.90;;;;;;5056793;28;20402;-81
2021/11/01 02:40:09;;;;;;;39.63;35.73;;;9.40;99.90;;;;;;5053925;28;20785;-81
2021/11/01 02:42:35;;;;;;;38.22;34.33;;;9.40;99.90;;;;;;5056372;28;20386;-81
2021/11/01 02:45:06;;;;;;;39.80;35.75;;;9.30;99.90;;;;;;5053486;28;20874;-82
2021/11/01 02:47:32;;;;;;;41.42;37.22;;;9.30;99.90;;;;;;5055262;28;20382;-81
2021/11/01 02:50:00;;;;;;;40.25;36.10;;;9.30;99.90;;;;;;5053083;28;20866;-81
2021/11/01 02:52:29;;;;;;;40.55;36.33;;;9.30;99.90;;;;;;5050143;28;20439;-81
2021/11/01 02:54:57;;;;;;;39.47;35.33;;;9.30;99.90;;;;;;5069598;28;20378;-82
2021/11/01 02:57:22;;;;;;;41.15;37.05;;;9.20;99.90;;;;;;5065906;28;20465;-82
2021/11/01 02:59:49;;;;;;;39.95;35.92;;;9.20;99.90;;;;;;5067726;28;20386;-82
2021/11/01 03:02:16;;;;;;;39.10;35.03;;;9.20;99.90;;;;;;5059968;28;20431;-81
2021/11/01 03:04:42;;;;;;;41.17;37.00;;;9.10;99.90;;;;;;5070685;28;20366;-82
2021/11/01 03:07:08;;;;;;;40.75;36.45;;;9.10;99.90;;;;;;5059212;28;20688;-82
2021/11/01 03:09:36;;;;;;;39.88;35.88;;;9.10;99.90;;;;;;5051563;28;20368;-81
2021/11/01 03:12:06;;;;;;;41.50;37.40;;;9.00;99.90;;;;;;5053856;28;20502;-81
2021/11/01 03:14:38;;;;;;;41.45;37.22;;;9.00;99.90;;;;;;5050931;28;20398;-82
2021/11/01 03:17:05;;;;;;;41.00;36.92;;;9.00;99.90;;;;;;5051427;28;20491;-82
2021/11/01 03:19:34;;;;;;;41.75;37.35;;;8.90;99.90;;;;;;5050785;28;20390;-81
2021/11/01 03:22:04;;;;;;;42.73;38.43;;;8.90;99.90;;;;;;5054288;28;20961;-82
2021/11/01 03:24:33;;;;;;;41.05;36.78;;;8.80;99.90;;;;;;5050733;28;20497;-81
2021/11/01 03:27:00;;;;;;;43.78;39.28;;;8.80;99.90;;;;;;5056303;28;20746;-82
2021/11/01 03:29:28;;;;;;;42.95;38.72;;;8.70;99.90;;;;;;5102449;28;20381;-82
2021/11/01 03:31:54;;;;;;;42.47;38.15;;;8.80;99.90;;;;;;5056775;28;20396;-81
2021/11/01 03:34:22;;;;;;;41.40;37.15;;;8.80;99.90;;;;;;5070373;28;20385;-81
2021/11/01 03:36:48;;;;;;;41.60;37.40;;;8.70;99.90;;;;;;5056144;28;20415;-82
2021/11/01 03:39:15;;;;;;;41.30;36.88;;;8.60;99.90;;;;;;5070850;28;20777;-81
2021/11/01 03:41:42;;;;;;;42.20;37.78;;;8.60;99.90;;;;;;5057546;28;20438;-81
2021/11/01 03:44:15;;;;;;;41.33;37.13;;;8.60;99.90;;;;;;5051327;28;20364;-81
2021/11/01 03:46:51;;;;;;;40.25;36.15;;;8.50;99.90;;;;;;5064348;28;20398;-82
2021/11/01 03:49:17;;;;;;;39.93;35.93;;;8.50;99.90;;;;;;5069595;28;20494;-82
2021/11/01 03:54:48;;;;;;;39.97;35.95;;;8.30;99.90;;;;;;5067405;28;20440;-82
2021/11/01 03:57:15;;;;;;;42.70;38.20;;;8.30;99.90;;;;;;5051466;28;20820;-82
2021/11/01 03:59:40;;;;;;;41.40;37.15;;;8.30;99.90;;;;;;5056778;28;20386;-82
2021/11/01 04:02:18;;;;;;;41.63;37.53;;;8.20;99.90;;;;;;5064642;28;20883;-83
2021/11/01 04:04:46;;;;;;;41.03;36.75;;;8.10;99.90;;;;;;5067144;28;20395;-82
2021/11/01 04:07:12;;;;;;;41.63;37.30;;;8.10;99.90;;;;;;5064418;28;20398;-82
2021/11/01 04:09:38;;;;;;;41.83;37.57;;;8.10;99.90;;;;;;5069850;28;20420;-82
2021/11/01 04:12:04;;;;;;;39.73;35.77;;;8.00;99.90;;;;;;5058176;28;20514;-81
2021/11/01 04:14:37;;;;;;;39.70;35.85;;;8.00;99.90;;;;;;5061760;28;20798;-82
2021/11/01 04:17:09;;;;;;;40.40;36.50;;;7.90;99.90;;;;;;5045411;28;20836;-82
2021/11/01 04:20:00;;;;;;;37.42;33.72;;;7.90;99.90;;;;;;5054229;28;20478;-83
2021/11/01 04:22:28;;;;;;;40.72;36.53;;;7.90;99.90;;;;;;5069595;28;20386;-82
2021/11/01 04:24:54;;;;;;;42.17;37.90;;;7.80;99.90;;;;;;5062811;28;20616;-82
2021/11/01 04:27:20;;;;;;;41.70;37.35;;;7.80;99.90;;;;;;5047029;28;20372;-81
2021/11/01 04:29:46;;;;;;;42.65;38.08;;;7.80;99.90;;;;;;5059620;28;20388;-82
2021/11/01 04:32:23;;;;;;;41.15;36.88;;;7.80;99.90;;;;;;5049327;28;20426;-82
2021/11/01 04:35:34;;;;;;;42.90;38.60;;;7.80;99.90;;;;;;5055882;28;20489;-82
2021/11/01 04:37:39;;;;;;;43.20;38.63;;;7.90;99.90;;;;;;5066875;27;20386;-82
2021/11/01 04:41:12;;;;;;;41.90;37.60;;;8.00;99.90;;;;;;5061204;28;20939;-82
2021/11/01 04:53:48;;;;;;;38.03;34.28;;;8.40;99.90;;;;;;5048647;28;20473;-82
2021/11/01 04:56:17;;;;;;;38.50;34.60;;;8.50;99.90;;;;;;5042853;28;20376;-84
2021/11/01 04:58:45;;;;;;;37.65;33.90;;;8.60;99.90;;;;;;5053052;28;20419;-81
2021/11/01 05:01:11;;;;;;;41.10;36.90;;;8.60;99.90;;;;;;5048839;28;20749;-82
2021/11/01 05:03:38;;;;;;;37.47;33.72;;;8.70;99.90;;;;;;5054962;28;20399;-82
2021/11/01 05:06:05;;;;;;;37.67;33.97;;;8.80;99.90;;;;;;5051211;28;20429;-83
2021/11/01 05:08:47;;;;;;;40.13;35.92;;;8.80;99.90;;;;;;5058686;28;20432;-82
2021/11/01 05:11:28;;;;;;;41.13;36.88;;;8.90;99.90;;;;;;5067219;28;20398;-81
2021/11/01 05:13:55;;;;;;;37.90;34.00;;;8.90;99.90;;;;;;5061190;28;20397;-82
2021/11/01 05:16:33;;;;;;;38.10;34.28;;;8.90;99.90;;;;;;5055538;28;20388;-81
2021/11/01 05:21:46;;;;;;;43.08;38.58;;;9.00;99.90;;;;;;5057052;28;20972;-81
2021/11/01 05:24:21;;;;;;;40.88;36.58;;;9.00;99.90;;;;;;5051825;28;20750;-82
2021/11/01 05:29:29;;;;;;;43.45;39.03;;;9.10;99.90;;;;;;5054861;28;20443;-82
2021/11/01 05:31:58;;;;;;;41.65;37.45;;;9.10;99.90;;;;;;5052377;28;20789;-81
2021/11/01 05:34:24;;;;;;;42.17;37.95;;;9.20;99.90;;;;;;5052439;28;20380;-81
2021/11/01 05:36:50;;;;;;;42.78;38.28;;;9.20;99.90;;;;;;5054228;28;20395;-81
2021/11/01 05:39:16;;;;;;;40.33;36.22;;;9.20;99.90;;;;;;5052823;28;20384;-81
2021/11/01 05:41:42;;;;;;;42.97;38.63;;;9.20;99.90;;;;;;5056689;28;20423;-82
2021/11/01 05:44:09;;;;;;;41.95;37.70;;;9.30;99.90;;;;;;5051937;28;20406;-81
2021/11/01 05:46:36;;;;;;;40.17;36.00;;;9.30;99.90;;;;;;5059211;28;20495;-82
2021/11/01 05:49:05;;;;;;;42.05;37.58;;;9.30;99.90;;;;;;5064127;28;20389;-82
2021/11/01 05:51:33;;;;;;;41.92;37.65;;;9.30;99.90;;;;;;5061105;28;20469;-82
2021/11/01 05:54:03;;;;;;;39.10;35.10;;;9.30;99.90;;;;;;5050902;28;20483;-81
2021/11/01 06:04:51;;;;;;;37.70;33.90;;;9.50;99.90;;;;;;5071801;28;20864;-81
2021/11/01 06:07:40;;;;;;;38.58;34.67;;;9.60;99.90;;;;;;5052563;28;20896;-82
2021/11/01 06:13:24;;;;;;;40.28;36.33;;;9.70;99.90;;;;;;5052270;28;20399;-82
2021/11/01 06:15:36;;;;;;;44.97;36.27;;;9.80;99.90;;;;;;5049505;28;20430;-82
2021/11/01 06:18:01;;;;;;;53.30;38.57;;;9.90;99.90;;;;;;5072788;28;20457;-82
2021/11/01 06:20:27;;;;;;;43.53;38.30;;;9.90;99.90;;;;;;5070840;28;20864;-82
2021/11/01 06:22:53;;;;;;;41.05;36.85;;;9.90;99.90;;;;;;5045336;28;20379;-82
2021/11/01 06:25:19;;;;;;;37.80;33.97;;;9.90;99.90;;;;;;5054003;28;20391;-83
2021/11/01 06:27:47;;;;;;;39.85;35.85;;;10.00;99.90;;;;;;5053673;28;20865;-83
2021/11/01 06:30:35;;;;;;;41.13;36.47;;;10.10;99.90;;;;;;5054517;28;20457;-83
2021/11/01 06:33:16;;;;;;;40.30;35.97;;;10.10;99.90;;;;;;5052936;28;20888;-82
2021/11/01 07:16:54;;;;;;;40.45;36.35;;;11.30;99.90;;;;;;5055146;28;20376;-82
2021/11/01 07:24:14;;;;;;;41.73;37.27;;;11.50;99.90;;;;;;5050793;28;20494;-82
2021/11/01 08:45:48;;;;;;;36.08;32.40;;;13.20;99.90;;;;;;5052038;28;20386;-83
2021/11/01 09:04:46;;;;;;;36.13;32.33;;;13.70;99.90;;;;;;5051052;28;20500;-82
2021/11/01 09:20:43;;;;;;;32.90;29.42;;;14.10;99.90;;;;;;5050744;28;20455;-82
2021/11/01 09:23:26;;;;;;;33.05;29.60;;;14.00;99.90;;;;;;5052466;28;20375;-82
2021/11/01 09:28:43;;;;;;;32.00;28.07;;;14.10;99.90;;;;;;5067187;28;20386;-82
2021/11/01 09:36:36;;;;;;;30.58;27.23;;;14.00;99.90;;;;;;5047485;28;20392;-82
2021/11/01 09:41:52;;;;;;;28.48;23.33;;;14.00;99.90;;;;;;5047295;28;20394;-82
2021/11/01 09:44:25;;;;;;;24.87;20.90;;;14.20;99.90;;;;;;5052624;28;20367;-83
2021/11/01 09:46:55;;;;;;;21.05;18.85;;;14.10;99.90;;;;;;5057824;28;20433;-83
2021/11/01 09:49:21;;;;;;;22.48;18.83;;;14.20;99.90;;;;;;5050219;28;20992;-83
2021/11/01 09:51:50;;;;;;;25.20;18.25;;;14.20;99.90;;;;;;5057769;28;20424;-83
2021/11/01 09:54:20;;;;;;;23.58;17.88;;;14.20;99.90;;;;;;5058826;28;20494;-83
2021/11/01 09:56:58;;;;;;;21.77;18.35;;;14.30;99.90;;;;;;5043705;28;20751;-82
2021/11/01 09:59:27;;;;;;;21.08;17.38;;;14.30;99.90;;;;;;5046482;28;20400;-82
2021/11/01 10:01:53;;;;;;;21.58;18.40;;;14.40;99.90;;;;;;5051003;28;20461;-83
2021/11/01 10:04:22;;;;;;;21.58;18.33;;;14.40;99.90;;;;;;5055477;28;20380;-82
2021/11/01 10:07:09;;;;;;;22.00;18.40;;;14.40;99.90;;;;;;5056877;28;20414;-83
2021/11/01 10:09:39;;;;;;;21.00;18.67;;;14.40;99.90;;;;;;5054286;28;20406;-82
2021/11/01 10:12:31;;;;;;;22.33;19.08;;;14.30;99.90;;;;;;5051495;28;20447;-83
2021/11/01 10:18:08;;;;;;;21.25;15.70;;;14.20;99.90;;;;;;5047754;28;20437;-82
2021/11/01 10:20:40;;;;;;;19.15;15.60;;;14.20;99.90;;;;;;5051345;28;20372;-83
2021/11/01 10:23:22;;;;;;;24.23;17.17;;;14.20;99.90;;;;;;5053414;28;20733;-83
2021/11/01 10:25:48;;;;;;;20.08;16.13;;;14.10;99.90;;;;;;5055675;28;20388;-82
2021/11/01 10:28:14;;;;;;;20.77;16.15;;;14.10;99.90;;;;;;5053601;28;20398;-82
2021/11/01 10:30:40;;;;;;;21.13;16.33;;;14.00;99.90;;;;;;5054462;28;20384;-85
2021/11/01 10:33:09;;;;;;;17.55;14.70;;;14.10;99.90;;;;;;5054003;28;20816;-82
2021/11/01 10:35:39;;;;;;;18.90;14.85;;;14.30;99.90;;;;;;5053101;28;20415;-81
2021/11/01 10:38:18;;;;;;;17.83;12.27;;;14.40;99.90;;;;;;5053895;28;20403;-83
2021/11/01 10:43:38;;;;;;;13.85;8.98;;;14.40;99.90;;;;;;5053381;28;20392;-83
2021/11/01 10:46:41;;;;;;;12.73;8.97;;;14.40;99.90;;;;;;5051760;28;20399;-82
2021/11/01 11:13:59;;;;;;;16.13;8.40;;;14.20;99.90;;;;;;5056555;28;20398;-83
2021/11/01 11:22:05;;;;;;;13.80;8.85;;;14.20;99.90;;;;;;5048896;28;20700;-85
2021/11/01 11:47:43;;;;;;;18.05;11.90;;;13.30;99.90;;;;;;5049889;28;20441;-84
2021/11/01 11:50:21;;;;;;;14.95;11.80;;;13.30;99.90;;;;;;5051352;28;20960;-83
2021/11/01 11:52:47;;;;;;;18.58;12.75;;;13.40;99.90;;;;;;5048499;28;20428;-83
2021/11/01 11:55:27;;;;;;;18.67;13.52;;;13.60;99.90;;;;;;5049359;28;20399;-84
2021/11/01 11:58:00;;;;;;;17.60;12.52;;;13.50;99.90;;;;;;5048229;28;20479;-83
2021/11/01 12:00:31;;;;;;;18.07;12.60;;;13.70;99.90;;;;;;5042240;28;20398;-83
2021/11/01 12:03:06;;;;;;;19.50;13.40;;;13.60;99.90;;;;;;5047893;28;20390;-84
2021/11/01 12:05:45;;;;;;;18.92;13.20;;;13.60;99.90;;;;;;5050966;28;20900;-83
2021/11/01 12:11:29;;;;;;;18.50;13.80;;;13.40;99.90;;;;;;5058821;28;20409;-82
2021/11/01 12:19:10;;;;;;;18.67;14.07;;;13.40;99.90;;;;;;5052121;28;20406;-82
2021/11/01 12:21:41;;;;;;;17.35;13.35;;;13.60;99.90;;;;;;5055008;28;20439;-83
2021/11/01 12:24:10;;;;;;;17.10;13.47;;;13.70;99.90;;;;;;5059393;28;20453;-81
2021/11/01 12:26:38;;;;;;;18.48;14.27;;;13.70;99.90;;;;;;5060754;28;20381;-82
2021/11/01 12:29:11;;;;;;;19.52;14.38;;;13.80;99.90;;;;;;5051612;28;20957;-82
2021/11/01 12:31:37;;;;;;;16.40;14.50;;;14.00;99.90;;;;;;5060530;28;20493;-83
2021/11/01 12:34:13;;;;;;;21.13;15.63;;;14.00;99.90;;;;;;5047494;28;20392;-82
2021/11/01 12:39:34;;;;;;;20.70;16.60;;;13.70;99.90;;;;;;5054462;28;20409;-83
2021/11/01 12:57:57;;;;;;;18.70;15.50;;;13.20;99.90;;;;;;5060277;28;20500;-83
2021/11/01 13:00:23;;;;;;;18.50;15.50;;;13.10;99.90;;;;;;5037076;28;20435;-81
2021/11/01 13:02:48;;;;;;;16.92;15.13;;;13.10;99.90;;;;;;5057053;28;20386;-83
2021/11/01 13:05:16;;;;;;;18.60;15.60;;;13.20;99.90;;;;;;5057808;28;20620;-82
2021/11/01 13:08:02;;;;;;;17.33;14.82;;;13.20;99.90;;;;;;5050709;28;20431;-83
2021/11/01 13:13:37;;;;;;;18.45;15.57;;;13.20;99.90;;;;;;5057946;28;21142;-82
2021/11/01 13:19:16;;;;;;;15.85;14.18;;;13.20;99.90;;;;;;5055010;28;20593;-82
2021/11/01 13:21:56;;;;;;;15.40;13.68;;;13.30;99.90;;;;;;5062199;28;20466;-83
2021/11/01 13:27:31;;;;;;;16.30;14.30;;;13.20;99.90;;;;;;5038968;28;20417;-82
2021/11/01 13:36:08;;;;;;;15.93;13.85;;;13.10;99.90;;;;;;5063665;28;20397;-82
2021/11/01 13:38:31;;;;;;;15.63;12.93;;;13.10;99.90;;;;;;5054974;28;20399;-82
2021/11/01 13:40:57;;;;;;;16.20;12.90;;;13.10;99.90;;;;;;5045277;28;20375;-83
2021/11/01 13:43:28;;;;;;;15.98;12.30;;;13.10;99.90;;;;;;5055481;28;20403;-82
2021/11/01 13:45:54;;;;;;;14.38;11.85;;;13.00;99.90;;;;;;5059979;28;20394;-82
2021/11/01 13:48:30;;;;;;;13.30;11.30;;;13.10;99.90;;;;;;5065021;28;20443;-82
2021/11/01 13:51:13;;;;;;;13.15;11.48;;;13.20;99.90;;;;;;5062105;28;20397;-83
2021/11/01 13:54:02;;;;;;;14.07;11.07;;;13.20;99.90;;;;;;5055910;28;20396;-84
2021/11/01 13:56:43;;;;;;;12.55;10.35;;;13.00;99.90;;;;;;5047721;28;20387;-82
2021/11/01 14:13:18;;;;;;;13.87;10.87;;;13.10;99.90;;;;;;5062005;28;20439;-83
2021/11/01 15:10:06;;;;;;;7.38;5.20;;;12.30;99.90;;;;;;5049508;28;20498;-82
2021/11/01 15:18:19;;;;;;;8.40;4.70;;;12.30;99.90;;;;;;5052422;28;20865;-82
2021/11/01 15:20:44;;;;;;;7.88;4.85;;;12.20;99.90;;;;;;5054199;28;20395;-81
2021/11/01 16:18:01;;;;;;;8.23;5.07;;;12.00;99.90;;;;;;5053193;28;20420;-83
2021/11/01 16:20:27;;;;;;;8.13;5.40;;;11.90;99.90;;;;;;5032695;28;20897;-82
2021/11/01 16:23:08;;;;;;;7.55;5.07;;;12.00;99.90;;;;;;5041804;28;20465;-83
2021/11/01 16:25:34;;;;;;;8.77;5.75;;;11.90;99.90;;;;;;5041926;28;20494;-83
2021/11/01 16:28:01;;;;;;;7.53;5.23;;;11.90;99.90;;;;;;5043125;28;20468;-83
2021/11/01 16:30:31;;;;;;;8.50;6.10;;;11.90;99.90;;;;;;5042584;28;20396;-82
2021/11/01 16:33:01;;;;;;;9.07;5.70;;;11.90;99.90;;;;;;5045759;28;21247;-83
2021/11/01 16:35:33;;;;;;;8.25;6.00;;;11.90;99.90;;;;;;5043123;28;20392;-82
2021/11/01 16:38:11;;;;;;;9.20;6.45;;;11.90;99.90;;;;;;5047212;28;20395;-83
2021/11/01 16:40:40;;;;;;;11.88;6.70;;;11.90;99.90;;;;;;5047089;28;20396;-82
2021/11/01 16:43:14;;;;;;;8.50;7.10;;;11.90;99.90;;;;;;5045166;28;20383;-83
2021/11/01 16:45:40;;;;;;;10.18;7.15;;;11.90;99.90;;;;;;5047605;28;20421;-83
2021/11/01 16:48:08;;;;;;;11.40;7.80;;;11.90;99.90;;;;;;5045979;28;20426;-83
2021/11/01 16:50:34;;;;;;;10.20;7.25;;;11.80;99.90;;;;;;5042315;28;20490;-82
2021/11/01 16:53:00;;;;;;;9.60;7.40;;;11.90;99.90;;;;;;5043738;28;20407;-82
2021/11/01 16:55:34;;;;;;;11.07;7.30;;;11.80;99.90;;;;;;5046371;28;20476;-83
2021/11/01 16:58:08;;;;;;;11.30;7.53;;;11.70;99.90;;;;;;5049177;28;20920;-82
2021/11/01 17:00:46;;;;;;;8.93;7.38;;;11.80;99.90;;;;;;5047230;28;20422;-83
2021/11/01 17:03:18;;;;;;;8.82;7.18;;;11.80;99.90;;;;;;5045637;28;20430;-82
2021/11/01 17:08:46;;;;;;;9.95;7.68;;;11.80;99.90;;;;;;5044474;28;20386;-82
2021/11/01 17:21:16;;;;;;;10.87;8.53;;;11.80;99.90;;;;;;5046419;28;20730;-82
2021/11/01 17:21:18;;;;;;;10.00;7.78;;;11.80;99.90;;;;;;5041963;28;20405;-82
2021/11/01 17:22:35;;;;;;;11.70;8.90;;;11.70;99.90;;;;;;5048695;28;20416;-83
2021/11/01 17:25:08;;;;;;;12.73;9.30;;;11.70;99.90;;;;;;5047669;28;20401;-83
2021/11/01 18:40:12;;;;;;;9.98;8.07;;;11.30;99.90;;;;;;5052082;28;21009;-81
2021/11/01 18:51:05;;;;;;;9.47;8.47;;;11.30;99.90;;;;;;5053902;28;20804;-81
2021/11/01 18:53:39;;;;;;;10.50;9.18;;;11.30;99.90;;;;;;5061258;28;20394;-82
2021/11/01 18:56:08;;;;;;;10.35;9.25;;;11.30;99.90;;;;;;5062489;28;20485;-82
2021/11/01 18:58:36;;;;;;;11.90;9.25;;;11.30;99.90;;;;;;5070439;28;20461;-83
2021/11/01 19:01:05;;;;;;;11.25;8.95;;;11.30;99.90;;;;;;5063987;28;20398;-83
2021/11/01 19:03:35;;;;;;;9.10;8.15;;;11.20;99.90;;;;;;5264613;22;20425;-79
2021/11/01 19:06:21;;;;;;;9.82;8.27;;;11.20;99.90;;;;;;5066932;28;20805;-80
2021/11/01 19:08:56;;;;;;;12.07;9.10;;;11.20;99.90;;;;;;5065321;28;20823;-79
2021/11/01 19:14:27;;;;;;;11.88;7.93;;;11.10;99.90;;;;;;5069424;28;20431;-80
2021/11/01 20:04:26;;;;;;;8.67;6.00;;;11.20;99.90;;;;;;5064577;28;20493;-79
2021/11/01 21:24:50;;;;;;;6.20;5.60;;;11.10;99.90;;;;;;5065353;28;20405;-79
2021/11/01 21:27:22;;;;;;;7.00;5.70;;;11.10;99.90;;;;;;5067268;28;20416;-79
2021/11/01 21:29:48;;;;;;;8.18;5.70;;;11.10;99.90;;;;;;5066071;28;20378;-79
2021/11/01 21:32:14;;;;;;;7.05;5.75;;;11.10;99.90;;;;;;5068277;28;20805;-79
2021/11/01 21:34:53;;;;;;;7.40;5.55;;;11.10;99.90;;;;;;5067706;28;20386;-80
2021/11/01 21:37:19;;;;;;;7.68;5.97;;;11.00;99.90;;;;;;5066304;28;20390;-79
2021/11/01 21:39:45;;;;;;;8.45;5.90;;;11.10;99.90;;;;;;5067720;28;20895;-79
2021/11/01 21:42:10;;;;;;;8.50;6.57;;;11.00;99.90;;;;;;5067481;28;20392;-79
2021/11/01 21:44:38;;;;;;;8.40;6.60;;;11.00;99.90;;;;;;5065698;28;20472;-79
2021/11/01 21:47:04;;;;;;;11.38;7.15;;;11.00;99.90;;;;;;5064905;28;20443;-79
2021/11/01 21:49:30;;;;;;;8.02;5.95;;;11.00;99.90;;;;;;5068363;28;20389;-79
2021/11/01 21:51:56;;;;;;;6.18;5.55;;;11.00;99.90;;;;;;5067583;28;20393;-79
2021/11/01 21:54:57;;;;;;;8.13;6.43;;;11.00;99.90;;;;;;5066827;28;20375;-79
2021/11/01 22:19:06;;;;;;;7.97;6.10;;;10.80;99.90;;;;;;5071777;28;20443;-79
2021/11/01 22:21:41;;;;;;;8.60;6.15;;;10.90;99.90;;;;;;5069547;28;20437;-79
2021/11/01 22:40:47;;;;;;;6.00;5.20;;;10.80;99.90;;;;;;5064594;28;20884;-79
2021/11/01 22:45:23;;;;;;;8.32;6.30;;;10.90;99.90;;;;;;5069239;28;20439;-80
2021/11/01 22:56:03;;;;;;;10.00;6.87;;;10.90;99.90;;;;;;5065447;28;20739;-80
2021/11/01 22:58:30;;;;;;;7.57;6.70;;;10.80;99.90;;;;;;5065282;28;20378;-79
2021/11/01 23:01:01;;;;;;;7.03;6.32;;;10.80;99.90;;;;;;5070247;28;20394;-80
2021/11/01 23:03:38;;;;;;;8.33;6.17;;;10.80;99.90;;;;;;5070729;28;20428;-79
2021/11/01 23:33:25;;;;;;;9.52;7.47;;;10.60;99.90;;;;;;5078837;28;21070;-80
2021/11/01 23:35:52;;;;;;;8.95;6.80;;;10.60;99.90;;;;;;5070070;28;20382;-78
2021/11/01 23:38:20;;;;;;;8.80;7.90;;;10.60;99.90;;;;;;5070636;28;20377;-79
2021/11/01 23:40:46;;;;;;;9.55;7.32;;;10.60;99.90;;;;;;5069512;28;20389;-79
2021/11/01 23:43:14;;;;;;;11.07;7.97;;;10.60;99.90;;;;;;5067726;28;20386;-79
2021/11/01 23:45:42;;;;;;;9.00;7.53;;;10.60;99.90;;;;;;5069266;28;20378;-78
2021/11/01 23:48:08;;;;;;;10.02;7.63;;;10.60;99.90;;;;;;5067432;28;20402;-80
2021/11/01 23:50:34;;;;;;;10.70;8.27;;;10.50;99.90;;;;;;5069261;28;20427;-79
2021/11/01 23:53:12;;;;;;;10.05;7.97;;;10.50;99.90;;;;;;5068394;28;20413;-79
2021/11/01 23:55:38;;;;;;;10.10;8.35;;;10.50;99.90;;;;;;5069308;28;20381;-78
2021/11/01 23:58:05;;;;;;;10.48;7.95;;;10.50;99.90;;;;;;5069410;28;20516;-79
